Time;durP1;ratioP1;P1;durP2;ratioP2;P2;SDS_P1;SDS_P2;PMS_P1;PMS_P2;Temp;Humidity;BMP_temperature;BMP_pressure;BME280_temperature;BME280_humidity;BME280_pressure;Samples;Min_cycle;Max_cycle;Signal;HPM_P1;HPM_P2
2021/05/01 00:02:04;;;;;;;127.57;22.58;;;;;;;;;;5053430;28;20347;-66
2021/05/01 00:04:32;;;;;;;92.28;19.85;;;;;;;;;;5050115;28;20096;-66
2021/05/01 00:06:57;;;;;;;88.70;20.45;;;;;;;;;;5053431;28;20394;-66
2021/05/01 00:09:22;;;;;;;121.82;22.33;;;;;;;;;;5051824;28;20033;-66
2021/05/01 00:11:47;;;;;;;108.50;22.55;;;;;;;;;;5051657;28;20024;-66
2021/05/01 00:14:13;;;;;;;125.05;25.17;;;;;;;;;;5051812;28;20033;-66
2021/05/01 00:16:38;;;;;;;166.27;24.50;;;;;;;;;;5052907;28;20040;-66
2021/05/01 00:19:03;;;;;;;99.78;21.80;;;;;;;;;;5052621;28;20024;-65
2021/05/01 00:21:29;;;;;;;115.57;21.58;;;;;;;;;;5053036;28;20037;-65
2021/05/01 00:23:54;;;;;;;104.30;20.20;;;;;;;;;;5052775;28;20029;-65
2021/05/01 00:26:19;;;;;;;78.63;20.77;;;;;;;;;;5053056;28;20021;-66
2021/05/01 00:28:45;;;;;;;100.47;20.88;;;;;;;;;;5052824;28;20044;-66
2021/05/01 00:31:10;;;;;;;108.70;21.50;;;;;;;;;;5052768;28;20025;-66
2021/05/01 00:33:38;;;;;;;97.43;19.90;;;;;;;;;;5052718;28;20013;-65
2021/05/01 00:36:03;;;;;;;89.45;19.70;;;;;;;;;;5052715;28;20040;-65
2021/05/01 00:38:29;;;;;;;136.70;22.48;;;;;;;;;;5052552;28;20033;-65
2021/05/01 00:40:54;;;;;;;111.47;20.40;;;;;;;;;;5053025;28;20060;-65
2021/05/01 00:43:19;;;;;;;97.60;19.67;;;;;;;;;;5052730;28;20025;-65
2021/05/01 00:45:45;;;;;;;120.38;22.15;;;;;;;;;;5052681;28;20083;-65
2021/05/01 00:48:10;;;;;;;98.82;21.27;;;;;;;;;;5052749;28;20381;-66
2021/05/01 00:50:36;;;;;;;93.20;20.15;;;;;;;;;;5052428;28;20033;-65
2021/05/01 00:53:01;;;;;;;130.85;21.15;;;;;;;;;;5052858;28;20385;-65
2021/05/01 00:55:26;;;;;;;98.60;20.33;;;;;;;;;;5052554;28;20044;-65
2021/05/01 00:57:53;;;;;;;86.82;19.85;;;;;;;;;;5052427;28;20041;-65
2021/05/01 01:00:37;;;;;;;130.93;21.90;;;;;;;;;;5052586;28;20047;-65
2021/05/01 01:03:02;;;;;;;96.00;19.38;;;;;;;;;;5052726;28;20040;-66
2021/05/01 01:05:28;;;;;;;74.18;18.13;;;;;;;;;;5052707;28;20076;-65
2021/05/01 01:07:53;;;;;;;89.20;20.13;;;;;;;;;;5052615;28;20016;-65
2021/05/01 01:10:18;;;;;;;89.45;20.48;;;;;;;;;;5052832;28;20024;-65
2021/05/01 01:12:44;;;;;;;386.88;32.47;;;;;;;;;;5052534;28;20465;-65
2021/05/01 01:15:09;;;;;;;250.30;27.55;;;;;;;;;;5054024;28;20053;-66
2021/05/01 01:17:35;;;;;;;100.28;19.38;;;;;;;;;;5056401;28;20029;-65
2021/05/01 01:20:00;;;;;;;77.85;18.92;;;;;;;;;;5056433;28;20038;-65
2021/05/01 01:22:26;;;;;;;95.72;20.42;;;;;;;;;;5056399;28;20063;-65
2021/05/01 01:24:51;;;;;;;73.60;17.73;;;;;;;;;;5056020;28;20021;-65
2021/05/01 01:27:16;;;;;;;76.53;19.00;;;;;;;;;;5056049;28;20032;-65
2021/05/01 01:29:42;;;;;;;207.82;25.83;;;;;;;;;;5056243;28;20025;-65
2021/05/01 01:32:08;;;;;;;95.90;19.85;;;;;;;;;;5056245;28;20382;-65
2021/05/01 01:34:34;;;;;;;80.55;17.75;;;;;;;;;;5056149;28;20108;-65
2021/05/01 01:36:59;;;;;;;86.07;20.05;;;;;;;;;;5056110;28;20159;-65
2021/05/01 01:39:25;;;;;;;96.15;20.50;;;;;;;;;;5055744;28;20401;-65
2021/05/01 01:41:50;;;;;;;85.70;18.20;;;;;;;;;;5055919;28;20048;-65
2021/05/01 01:44:16;;;;;;;97.95;20.35;;;;;;;;;;5055636;28;20444;-65
2021/05/01 01:46:41;;;;;;;81.00;19.13;;;;;;;;;;5055743;28;20099;-65
2021/05/01 01:49:06;;;;;;;98.50;19.65;;;;;;;;;;5055800;28;20126;-65
2021/05/01 01:51:32;;;;;;;99.38;21.08;;;;;;;;;;5055858;28;20449;-65
2021/05/01 01:53:57;;;;;;;89.20;19.48;;;;;;;;;;5055815;28;20032;-66
2021/05/01 01:56:24;;;;;;;80.93;20.42;;;;;;;;;;5055677;28;20037;-65
2021/05/01 01:58:49;;;;;;;83.97;19.55;;;;;;;;;;5055112;28;20458;-65
2021/05/01 02:01:15;;;;;;;83.63;20.10;;;;;;;;;;5055346;28;20111;-65
2021/05/01 02:03:40;;;;;;;69.47;18.92;;;;;;;;;;5055320;28;20037;-65
2021/05/01 02:06:06;;;;;;;90.93;21.13;;;;;;;;;;5055635;28;20021;-65
2021/05/01 02:08:31;;;;;;;102.85;19.55;;;;;;;;;;5055392;28;20414;-65
2021/05/01 02:10:56;;;;;;;105.35;21.27;;;;;;;;;;5055578;28;20103;-65
2021/05/01 02:13:22;;;;;;;121.80;22.15;;;;;;;;;;5055273;28;20021;-65
2021/05/01 02:15:47;;;;;;;145.02;22.38;;;;;;;;;;5055268;28;20021;-65
2021/05/01 02:18:13;;;;;;;137.60;20.50;;;;;;;;;;5055234;28;20041;-65
2021/05/01 02:20:38;;;;;;;79.20;18.42;;;;;;;;;;5054989;28;20409;-65
2021/05/01 02:23:04;;;;;;;75.43;18.00;;;;;;;;;;5055212;28;20024;-65
2021/05/01 02:25:30;;;;;;;153.68;23.20;;;;;;;;;;5055115;28;20183;-65
2021/05/01 02:27:55;;;;;;;108.13;20.10;;;;;;;;;;5054767;28;20092;-65
2021/05/01 02:30:21;;;;;;;85.22;18.98;;;;;;;;;;5054915;28;20023;-65
2021/05/01 02:32:47;;;;;;;96.63;20.13;;;;;;;;;;5055059;28;20037;-65
2021/05/01 02:35:13;;;;;;;129.35;22.17;;;;;;;;;;5054775;28;20023;-65
2021/05/01 02:37:39;;;;;;;98.25;21.35;;;;;;;;;;5054865;28;20024;-65
2021/05/01 02:40:05;;;;;;;100.32;21.95;;;;;;;;;;5054742;28;20044;-65
2021/05/01 02:42:31;;;;;;;83.90;20.63;;;;;;;;;;5053512;28;20424;-65
2021/05/01 02:44:56;;;;;;;114.15;22.95;;;;;;;;;;5054860;28;20017;-65
2021/05/01 02:47:21;;;;;;;112.25;22.88;;;;;;;;;;5054795;28;20408;-65
2021/05/01 02:49:47;;;;;;;107.65;23.92;;;;;;;;;;5054749;28;20068;-65
2021/05/01 02:52:12;;;;;;;91.32;20.75;;;;;;;;;;5054781;28;20028;-65
2021/05/01 02:54:37;;;;;;;90.93;22.45;;;;;;;;;;5054637;28;20438;-65
2021/05/01 02:57:03;;;;;;;93.55;22.00;;;;;;;;;;5054319;28;20020;-65
2021/05/01 02:59:28;;;;;;;86.78;21.63;;;;;;;;;;5054221;28;20048;-65
2021/05/01 03:01:53;;;;;;;76.85;21.70;;;;;;;;;;5054457;28;20045;-65
2021/05/01 03:04:19;;;;;;;83.72;21.83;;;;;;;;;;5054435;28;20373;-65
2021/05/01 03:06:44;;;;;;;104.97;24.80;;;;;;;;;;5054500;28;20021;-65
2021/05/01 03:09:10;;;;;;;97.28;23.25;;;;;;;;;;5054327;28;20039;-65
2021/05/01 03:11:35;;;;;;;95.50;23.58;;;;;;;;;;5054316;28;20031;-65
2021/05/01 03:14:00;;;;;;;97.38;23.70;;;;;;;;;;5053946;28;20021;-65
2021/05/01 03:16:25;;;;;;;95.20;22.77;;;;;;;;;;5054325;28;20139;-65
2021/05/01 03:18:51;;;;;;;96.85;23.08;;;;;;;;;;5054144;28;20023;-65
2021/05/01 03:21:16;;;;;;;91.80;22.45;;;;;;;;;;5053920;28;20033;-65
2021/05/01 03:23:42;;;;;;;101.18;23.38;;;;;;;;;;5054031;28;20028;-65
2021/05/01 03:26:07;;;;;;;98.80;23.95;;;;;;;;;;5054094;28;20442;-65
2021/05/01 03:28:32;;;;;;;89.65;22.92;;;;;;;;;;5053955;28;20052;-65
2021/05/01 03:30:58;;;;;;;89.22;22.75;;;;;;;;;;5054037;28;20087;-65
2021/05/01 03:33:25;;;;;;;108.75;22.20;;;;;;;;;;5053746;28;20433;-65
2021/05/01 03:35:50;;;;;;;86.20;24.20;;;;;;;;;;5054040;28;20090;-64
2021/05/01 03:38:15;;;;;;;109.15;24.30;;;;;;;;;;5053202;28;20465;-65
2021/05/01 03:40:41;;;;;;;92.38;24.45;;;;;;;;;;5053931;28;20127;-65
2021/05/01 03:43:09;;;;;;;94.57;24.65;;;;;;;;;;5053617;28;20025;-65
2021/05/01 03:45:34;;;;;;;94.97;25.60;;;;;;;;;;5053728;28;20115;-65
2021/05/01 03:48:00;;;;;;;109.88;26.42;;;;;;;;;;5053499;28;20093;-65
2021/05/01 03:50:25;;;;;;;112.32;26.65;;;;;;;;;;5053303;28;20100;-65
2021/05/01 03:52:50;;;;;;;103.88;24.52;;;;;;;;;;5053482;28;20067;-65
2021/05/01 03:55:16;;;;;;;141.05;24.95;;;;;;;;;;5053870;28;20028;-65
2021/05/01 03:57:41;;;;;;;97.25;22.85;;;;;;;;;;5053600;28;20048;-65
2021/05/01 04:00:07;;;;;;;122.47;23.90;;;;;;;;;;5053045;28;20033;-65
2021/05/01 04:02:32;;;;;;;113.60;24.15;;;;;;;;;;5053398;28;20056;-65
2021/05/01 04:04:57;;;;;;;91.40;23.88;;;;;;;;;;5053384;28;20059;-65
2021/05/01 04:07:23;;;;;;;119.75;26.23;;;;;;;;;;5053135;28;20488;-65
2021/05/01 04:09:48;;;;;;;116.50;25.80;;;;;;;;;;5053321;28;20017;-65
2021/05/01 04:12:13;;;;;;;105.03;25.05;;;;;;;;;;5053453;28;20032;-65
2021/05/01 04:14:39;;;;;;;105.57;25.70;;;;;;;;;;5053139;28;20071;-65
2021/05/01 04:17:04;;;;;;;101.20;24.48;;;;;;;;;;5053576;28;20013;-65
2021/05/01 04:19:29;;;;;;;107.35;24.77;;;;;;;;;;5053181;28;20078;-65
2021/05/01 04:22:03;;;;;;;111.60;27.48;;;;;;;;;;5052855;28;20099;-65
2021/05/01 04:24:28;;;;;;;114.30;27.85;;;;;;;;;;5053033;28;20024;-65
2021/05/01 04:26:53;;;;;;;128.77;27.38;;;;;;;;;;5053012;28;20025;-65
2021/05/01 04:29:19;;;;;;;121.25;25.70;;;;;;;;;;5052988;28;20036;-65
2021/05/01 04:31:44;;;;;;;118.07;25.13;;;;;;;;;;5053462;28;20346;-65
2021/05/01 04:34:09;;;;;;;112.22;25.02;;;;;;;;;;5052931;28;20009;-65
2021/05/01 04:36:35;;;;;;;112.28;26.15;;;;;;;;;;5053135;28;20028;-65
2021/05/01 04:39:00;;;;;;;110.22;25.38;;;;;;;;;;5052638;28;20131;-66
2021/05/01 04:41:25;;;;;;;88.90;24.08;;;;;;;;;;5053189;28;20025;-65
2021/05/01 04:43:52;;;;;;;107.40;26.42;;;;;;;;;;5052810;28;20033;-65
2021/05/01 04:46:18;;;;;;;102.45;24.13;;;;;;;;;;5053048;28;20021;-65
2021/05/01 04:48:44;;;;;;;114.68;26.08;;;;;;;;;;5052346;28;20036;-65
2021/05/01 04:51:09;;;;;;;104.53;25.25;;;;;;;;;;5055704;28;20029;-65
2021/05/01 04:53:34;;;;;;;91.32;24.60;;;;;;;;;;5056836;28;20009;-65
2021/05/01 04:56:00;;;;;;;93.30;25.10;;;;;;;;;;5057025;28;20021;-65
2021/05/01 04:58:25;;;;;;;95.50;25.33;;;;;;;;;;5056589;28;20370;-65
2021/05/01 05:00:50;;;;;;;114.82;26.55;;;;;;;;;;5056886;28;20075;-64
2021/05/01 05:03:16;;;;;;;105.57;24.20;;;;;;;;;;5057026;28;20021;-65
2021/05/01 05:05:41;;;;;;;106.25;25.52;;;;;;;;;;5056971;28;20033;-65
2021/05/01 05:08:06;;;;;;;111.80;25.65;;;;;;;;;;5056751;28;20017;-65
2021/05/01 05:10:32;;;;;;;102.35;25.20;;;;;;;;;;5056241;28;20104;-65
2021/05/01 05:12:57;;;;;;;101.32;24.77;;;;;;;;;;5056311;28;20086;-65
2021/05/01 05:15:22;;;;;;;107.53;25.45;;;;;;;;;;5056301;28;20032;-65
2021/05/01 05:17:48;;;;;;;99.97;26.25;;;;;;;;;;5056679;28;20017;-65
2021/05/01 05:20:13;;;;;;;103.90;25.90;;;;;;;;;;5056310;28;20484;-65
2021/05/01 05:22:38;;;;;;;119.13;25.85;;;;;;;;;;5056150;28;20487;-65
2021/05/01 05:25:05;;;;;;;101.43;24.58;;;;;;;;;;5056335;28;20025;-65
2021/05/01 05:27:30;;;;;;;90.22;23.75;;;;;;;;;;5056313;28;20041;-65
2021/05/01 05:29:55;;;;;;;96.45;23.02;;;;;;;;;;5056246;28;20104;-65
2021/05/01 05:32:22;;;;;;;97.45;23.77;;;;;;;;;;5056287;28;20021;-65
2021/05/01 05:34:48;;;;;;;95.50;22.35;;;;;;;;;;5056125;28;20095;-65
2021/05/01 05:37:13;;;;;;;88.95;19.30;;;;;;;;;;5056186;28;20025;-66
2021/05/01 05:39:39;;;;;;;71.18;18.95;;;;;;;;;;5055845;28;20051;-66
2021/05/01 05:42:06;;;;;;;85.93;17.65;;;;;;;;;;5054824;28;20397;-66
2021/05/01 05:44:32;;;;;;;47.13;14.98;;;;;;;;;;5055894;28;20092;-66
2021/05/01 05:46:57;;;;;;;404.63;33.35;;;;;;;;;;5056051;28;20044;-66
2021/05/01 05:49:22;;;;;;;212.95;21.42;;;;;;;;;;5055723;28;20060;-67
2021/05/01 05:51:48;;;;;;;145.35;18.08;;;;;;;;;;5055984;28;20017;-66
2021/05/01 05:54:13;;;;;;;926.80;55.08;;;;;;;;;;5055455;28;20017;-67
2021/05/01 05:56:38;;;;;;;64.05;13.23;;;;;;;;;;5055763;28;20033;-67
2021/05/01 05:59:04;;;;;;;309.35;23.77;;;;;;;;;;5055651;28;20024;-67
2021/05/01 06:01:31;;;;;;;765.15;46.28;;;;;;;;;;5055244;28;20028;-67
2021/05/01 06:03:58;;;;;;;82.53;12.93;;;;;;;;;;5055612;28;20036;-67
2021/05/01 06:06:26;;;;;;;926.00;55.45;;;;;;;;;;5055557;28;20025;-67
2021/05/01 06:08:52;;;;;;;281.85;22.40;;;;;;;;;;5055332;28;20028;-67
2021/05/01 06:11:18;;;;;;;415.05;30.30;;;;;;;;;;5055531;28;20033;-67
2021/05/01 06:13:45;;;;;;;518.03;37.75;;;;;;;;;;5055319;28;20373;-67
2021/05/01 06:16:11;;;;;;;421.40;31.70;;;;;;;;;;5055473;28;20410;-67
2021/05/01 06:18:38;;;;;;;453.20;30.25;;;;;;;;;;5055195;28;20075;-67
2021/05/01 06:21:04;;;;;;;533.65;32.35;;;;;;;;;;5055270;28;20037;-67
2021/05/01 06:23:29;;;;;;;631.40;38.70;;;;;;;;;;5055194;28;20043;-67
2021/05/01 06:25:56;;;;;;;234.98;18.17;;;;;;;;;;5055332;28;20087;-67
2021/05/01 06:28:21;;;;;;;494.35;32.03;;;;;;;;;;5055211;28;20024;-67
2021/05/01 06:30:47;;;;;;;122.72;13.32;;;;;;;;;;5054786;28;20025;-67
2021/05/01 06:33:13;;;;;;;16.85;9.23;;;;;;;;;;5055140;28;20041;-64
2021/05/01 06:35:39;;;;;;;81.45;11.30;;;;;;;;;;5054934;28;20409;-65
2021/05/01 06:38:05;;;;;;;66.40;10.85;;;;;;;;;;5055055;28;20017;-64
2021/05/01 06:40:34;;;;;;;18.17;8.45;;;;;;;;;;5054838;28;20081;-64
2021/05/01 06:43:03;;;;;;;14.05;8.23;;;;;;;;;;5054930;28;20051;-65
2021/05/01 06:45:29;;;;;;;16.70;9.07;;;;;;;;;;5054541;28;20385;-65
2021/05/01 06:47:56;;;;;;;12.95;8.35;;;;;;;;;;5054889;28;20033;-65
2021/05/01 06:50:23;;;;;;;12.32;8.93;;;;;;;;;;5054716;28;20029;-64
2021/05/01 06:52:49;;;;;;;11.52;8.88;;;;;;;;;;5054805;28;20021;-65
2021/05/01 06:55:15;;;;;;;14.02;9.82;;;;;;;;;;5054615;28;20033;-65
2021/05/01 06:57:45;;;;;;;11.32;8.38;;;;;;;;;;5054664;28;20029;-65
2021/05/01 07:00:10;;;;;;;14.18;7.68;;;;;;;;;;5054194;28;20033;-65
2021/05/01 07:02:39;;;;;;;10.32;7.80;;;;;;;;;;5054529;28;20082;-65
2021/05/01 07:05:05;;;;;;;11.35;8.00;;;;;;;;;;5054441;28;20060;-65
2021/05/01 07:07:31;;;;;;;11.05;8.07;;;;;;;;;;5054548;28;20056;-65
2021/05/01 07:09:56;;;;;;;11.65;8.15;;;;;;;;;;5054113;28;20393;-65
2021/05/01 07:12:22;;;;;;;10.70;8.27;;;;;;;;;;5053479;28;20064;-66
2021/05/01 07:14:48;;;;;;;12.40;9.10;;;;;;;;;;5054282;28;20359;-66
2021/05/01 07:17:14;;;;;;;10.48;7.57;;;;;;;;;;5054626;28;20040;-65
2021/05/01 07:19:40;;;;;;;11.02;8.13;;;;;;;;;;5053797;28;20020;-65
2021/05/01 07:22:05;;;;;;;14.80;8.98;;;;;;;;;;5053925;28;20434;-65
2021/05/01 07:24:30;;;;;;;10.63;8.48;;;;;;;;;;5053960;28;20135;-66
2021/05/01 07:26:56;;;;;;;12.07;8.82;;;;;;;;;;5052732;28;20458;-66
2021/05/01 07:29:23;;;;;;;10.82;8.23;;;;;;;;;;5052900;28;20030;-66
2021/05/01 07:31:50;;;;;;;13.00;9.35;;;;;;;;;;5053240;28;20503;-66
2021/05/01 07:34:22;;;;;;;10.43;9.15;;;;;;;;;;5053849;28;20100;-66
2021/05/01 07:36:48;;;;;;;15.07;10.52;;;;;;;;;;5053985;28;20021;-66
2021/05/01 07:39:15;;;;;;;11.63;9.85;;;;;;;;;;5053660;28;20393;-66
2021/05/01 07:41:43;;;;;;;13.50;10.57;;;;;;;;;;5053615;28;20075;-66
2021/05/01 07:44:09;;;;;;;15.23;12.20;;;;;;;;;;5047131;28;20037;-66
2021/05/01 07:46:34;;;;;;;11.52;10.10;;;;;;;;;;5049223;28;20055;-66
2021/05/01 07:49:00;;;;;;;14.77;12.00;;;;;;;;;;5048457;28;20465;-66
2021/05/01 07:51:26;;;;;;;14.18;12.63;;;;;;;;;;5047260;28;20456;-66
2021/05/01 07:53:52;;;;;;;16.50;13.20;;;;;;;;;;5048743;28;20039;-66
2021/05/01 07:56:17;;;;;;;18.60;13.70;;;;;;;;;;5048716;28;20029;-66
2021/05/01 07:58:42;;;;;;;16.63;12.60;;;;;;;;;;5047818;28;20029;-66
2021/05/01 08:01:08;;;;;;;14.32;12.82;;;;;;;;;;5048422;28;20139;-66
2021/05/01 08:03:33;;;;;;;15.90;13.43;;;;;;;;;;5048580;28;20036;-66
2021/05/01 08:05:58;;;;;;;14.20;12.65;;;;;;;;;;5048004;28;20538;-66
2021/05/01 08:08:24;;;;;;;13.52;11.75;;;;;;;;;;5048480;28;20095;-66
2021/05/01 08:10:49;;;;;;;14.13;12.43;;;;;;;;;;5047912;28;20028;-66
2021/05/01 08:13:15;;;;;;;14.85;12.13;;;;;;;;;;5048166;28;20024;-65
2021/05/01 08:15:40;;;;;;;14.50;12.70;;;;;;;;;;5048295;28;20037;-66
2021/05/01 08:18:09;;;;;;;16.35;12.30;;;;;;;;;;5051334;28;20447;-66
2021/05/01 08:20:35;;;;;;;16.25;12.55;;;;;;;;;;5053053;28;20037;-65
2021/05/01 08:23:00;;;;;;;18.75;12.13;;;;;;;;;;5052867;28;20037;-65
2021/05/01 08:25:26;;;;;;;12.38;9.80;;;;;;;;;;5052560;28;20031;-66
2021/05/01 08:27:51;;;;;;;13.02;9.93;;;;;;;;;;5052970;28;20052;-65
2021/05/01 08:30:17;;;;;;;16.88;10.48;;;;;;;;;;5052704;28;20033;-65
2021/05/01 08:32:43;;;;;;;13.55;10.43;;;;;;;;;;5052523;28;20062;-65
2021/05/01 08:35:09;;;;;;;14.30;9.85;;;;;;;;;;5052196;28;20484;-65
2021/05/01 08:37:35;;;;;;;13.98;8.65;;;;;;;;;;5052225;28;20033;-65
2021/05/01 08:40:00;;;;;;;12.48;9.50;;;;;;;;;;5052207;28;20037;-65
2021/05/01 08:42:26;;;;;;;13.93;9.68;;;;;;;;;;5051578;28;20532;-65
2021/05/01 08:44:51;;;;;;;11.88;8.40;;;;;;;;;;5052359;28;20112;-65
2021/05/01 08:47:17;;;;;;;10.30;8.73;;;;;;;;;;5052175;28;20056;-65
2021/05/01 08:49:42;;;;;;;11.07;8.80;;;;;;;;;;5052099;28;20385;-65
2021/05/01 08:52:09;;;;;;;12.57;8.35;;;;;;;;;;5052666;28;20041;-65
2021/05/01 08:54:34;;;;;;;10.15;8.63;;;;;;;;;;5051720;28;20048;-65
2021/05/01 08:57:00;;;;;;;10.68;8.75;;;;;;;;;;5052389;28;20480;-65
2021/05/01 08:59:25;;;;;;;9.63;8.52;;;;;;;;;;5051628;28;20359;-65
2021/05/01 09:01:51;;;;;;;13.60;8.68;;;;;;;;;;5052017;28;20112;-65
2021/05/01 09:04:17;;;;;;;12.23;9.85;;;;;;;;;;5052277;28;20021;-65
2021/05/01 09:06:43;;;;;;;14.93;11.10;;;;;;;;;;5062254;28;20032;-65
2021/05/01 09:09:09;;;;;;;14.32;10.93;;;;;;;;;;5061273;28;20381;-65
2021/05/01 09:11:39;;;;;;;17.65;12.25;;;;;;;;;;5061325;28;20029;-65
2021/05/01 09:14:21;;;;;;;14.18;10.88;;;;;;;;;;5032025;28;20874;-65
2021/05/01 09:17:00;;;;;;;14.70;11.60;;;;;;;;;;5032653;28;20096;-65
2021/05/01 09:19:32;;;;;;;16.63;11.95;;;;;;;;;;5032224;28;20429;-65
2021/05/01 09:21:59;;;;;;;18.60;12.93;;;;;;;;;;5032431;28;20389;-65
2021/05/01 09:24:25;;;;;;;19.70;13.20;;;;;;;;;;5032345;28;20095;-65
2021/05/01 09:26:50;;;;;;;18.35;12.45;;;;;;;;;;5031346;28;20038;-65
2021/05/01 09:29:32;;;;;;;18.48;11.70;;;;;;;;;;5032209;28;20052;-65
2021/05/01 09:32:00;;;;;;;15.30;11.98;;;;;;;;;;5032522;28;20037;-64
2021/05/01 09:34:39;;;;;;;17.77;12.30;;;;;;;;;;5032438;28;20041;-64
2021/05/01 09:37:06;;;;;;;17.23;13.07;;;;;;;;;;5053893;28;20531;-64
2021/05/01 09:39:31;;;;;;;17.58;12.32;;;;;;;;;;5055798;28;20068;-64
2021/05/01 09:41:56;;;;;;;29.45;12.50;;;;;;;;;;5056009;28;20073;-65
2021/05/01 09:44:23;;;;;;;15.68;11.35;;;;;;;;;;5055990;28;20108;-65
2021/05/01 09:46:54;;;;;;;18.95;12.07;;;;;;;;;;5054199;28;20028;-64
2021/05/01 09:49:28;;;;;;;14.82;11.63;;;;;;;;;;5055651;28;20028;-64
2021/05/01 09:52:00;;;;;;;17.60;11.45;;;;;;;;;;5055622;28;20029;-64
2021/05/01 09:54:27;;;;;;;18.10;11.65;;;;;;;;;;5055241;28;20591;-64
2021/05/01 09:56:53;;;;;;;13.00;9.80;;;;;;;;;;5055677;28;20021;-64
2021/05/01 09:59:19;;;;;;;17.73;10.77;;;;;;;;;;5055263;28;20032;-64
2021/05/01 10:01:58;;;;;;;13.30;9.60;;;;;;;;;;5055330;28;20033;-64
2021/05/01 10:04:24;;;;;;;15.02;10.13;;;;;;;;;;5055504;28;20033;-64
2021/05/01 10:06:51;;;;;;;16.80;9.93;;;;;;;;;;5055699;28;20056;-65
2021/05/01 10:09:24;;;;;;;12.77;9.65;;;;;;;;;;5055516;28;20017;-64
2021/05/01 10:11:51;;;;;;;13.45;8.98;;;;;;;;;;5055870;28;20037;-64
2021/05/01 10:14:17;;;;;;;13.27;9.35;;;;;;;;;;5055385;28;20112;-64
2021/05/01 10:16:52;;;;;;;13.82;9.55;;;;;;;;;;5055469;28;20051;-64
2021/05/01 10:19:18;;;;;;;13.75;8.95;;;;;;;;;;5055334;28;20033;-65
2021/05/01 10:21:44;;;;;;;11.93;9.13;;;;;;;;;;5055313;28;20470;-64
2021/05/01 10:24:10;;;;;;;12.77;9.18;;;;;;;;;;5055195;28;20421;-64
2021/05/01 10:27:01;;;;;;;11.38;8.60;;;;;;;;;;5054979;28;20031;-64
2021/05/01 10:29:38;;;;;;;10.52;8.10;;;;;;;;;;5050110;28;20041;-64
2021/05/01 10:32:14;;;;;;;11.32;8.45;;;;;;;;;;5055146;28;20516;-67
2021/05/01 10:34:40;;;;;;;13.98;8.93;;;;;;;;;;5054700;28;20485;-67
2021/05/01 10:37:07;;;;;;;12.55;8.27;;;;;;;;;;5054804;28;20466;-67
2021/05/01 10:39:42;;;;;;;11.80;8.30;;;;;;;;;;5054530;28;20057;-66
2021/05/01 10:42:12;;;;;;;18.02;8.48;;;;;;;;;;5054860;28;20049;-66
2021/05/01 10:44:37;;;;;;;11.90;8.65;;;;;;;;;;5054739;28;20071;-67
2021/05/01 10:47:08;;;;;;;11.65;8.38;;;;;;;;;;5053769;28;20045;-64
2021/05/01 10:49:34;;;;;;;11.00;8.55;;;;;;;;;;5054407;28;20449;-64
2021/05/01 10:52:11;;;;;;;11.80;8.63;;;;;;;;;;5054821;28;20135;-64
2021/05/01 10:54:36;;;;;;;10.18;7.80;;;;;;;;;;5054471;28;20032;-64
2021/05/01 10:57:11;;;;;;;12.88;8.80;;;;;;;;;;5054715;28;20087;-64
2021/05/01 10:59:37;;;;;;;14.38;8.65;;;;;;;;;;5054085;28;20033;-67
2021/05/01 11:02:12;;;;;;;11.35;8.07;;;;;;;;;;5054495;28;20363;-66
2021/05/01 11:04:47;;;;;;;13.20;8.43;;;;;;;;;;5053698;28;20029;-67
2021/05/01 11:07:22;;;;;;;9.98;7.88;;;;;;;;;;5054125;28;20469;-67
2021/05/01 11:09:48;;;;;;;14.27;7.97;;;;;;;;;;5054377;28;20075;-66
2021/05/01 11:12:14;;;;;;;10.82;8.35;;;;;;;;;;5054264;28;20033;-66
2021/05/01 11:14:47;;;;;;;11.00;7.65;;;;;;;;;;5053993;28;20114;-67
2021/05/01 11:17:25;;;;;;;10.98;7.82;;;;;;;;;;5054250;28;20028;-67
2021/05/01 11:19:51;;;;;;;10.90;7.05;;;;;;;;;;5054045;28;20037;-67
2021/05/01 11:22:19;;;;;;;10.07;6.78;;;;;;;;;;5054209;28;20033;-66
2021/05/01 11:24:45;;;;;;;9.23;6.50;;;;;;;;;;5053784;28;20115;-64
2021/05/01 11:27:10;;;;;;;10.95;6.10;;;;;;;;;;5054192;28;20056;-66
2021/05/01 11:29:35;;;;;;;10.40;7.05;;;;;;;;;;5053591;28;20519;-66
2021/05/01 11:32:02;;;;;;;10.65;6.18;;;;;;;;;;5054051;28;20095;-66
2021/05/01 11:34:29;;;;;;;7.88;5.97;;;;;;;;;;5053923;28;20071;-66
2021/05/01 11:36:55;;;;;;;9.05;6.50;;;;;;;;;;5053999;28;20104;-66
2021/05/01 11:39:20;;;;;;;8.98;5.68;;;;;;;;;;5053615;28;20048;-66
2021/05/01 11:41:46;;;;;;;7.47;5.53;;;;;;;;;;5053660;28;20806;-66
2021/05/01 11:44:13;;;;;;;8.23;6.35;;;;;;;;;;5053799;28;20033;-66
2021/05/01 11:47:01;;;;;;;9.50;6.28;;;;;;;;;;5053747;28;20120;-67
2021/05/01 11:49:27;;;;;;;10.57;5.57;;;;;;;;;;5039750;28;20453;-66
2021/05/01 11:52:08;;;;;;;7.80;5.30;;;;;;;;;;5053423;28;20509;-66
2021/05/01 11:54:33;;;;;;;8.70;4.55;;;;;;;;;;5053497;28;20036;-66
2021/05/01 11:57:09;;;;;;;7.10;4.95;;;;;;;;;;5053664;28;20036;-66
2021/05/01 11:59:42;;;;;;;9.30;4.65;;;;;;;;;;5052622;28;20401;-66
2021/05/01 12:02:07;;;;;;;7.13;4.53;;;;;;;;;;5053185;28;20473;-66
2021/05/01 12:04:52;;;;;;;7.38;4.95;;;;;;;;;;5051936;28;20028;-66
2021/05/01 12:07:23;;;;;;;6.88;4.45;;;;;;;;;;5053058;28;20416;-66
2021/05/01 12:09:51;;;;;;;7.68;5.07;;;;;;;;;;5053345;28;20366;-66
2021/05/01 12:12:18;;;;;;;11.23;4.85;;;;;;;;;;5053347;28;20450;-66
2021/05/01 12:14:43;;;;;;;7.35;5.35;;;;;;;;;;5053239;28;20029;-67
2021/05/01 12:17:12;;;;;;;8.57;5.53;;;;;;;;;;5053546;28;20041;-66
2021/05/01 12:19:44;;;;;;;7.95;4.85;;;;;;;;;;5052798;28;20450;-66
2021/05/01 12:22:26;;;;;;;7.60;4.93;;;;;;;;;;5053148;28;20424;-66
2021/05/01 12:24:51;;;;;;;7.15;5.45;;;;;;;;;;5053068;28;20037;-66
2021/05/01 12:27:35;;;;;;;9.02;5.10;;;;;;;;;;5053124;28;20025;-66
2021/05/01 12:30:01;;;;;;;6.72;4.57;;;;;;;;;;5052926;28;20024;-66
2021/05/01 12:32:26;;;;;;;10.57;4.40;;;;;;;;;;5053064;28;20093;-66
2021/05/01 12:34:55;;;;;;;6.20;4.57;;;;;;;;;;5052984;28;20388;-66
2021/05/01 12:37:21;;;;;;;9.73;5.60;;;;;;;;;;5053057;28;20139;-67
2021/05/01 12:39:47;;;;;;;6.40;4.82;;;;;;;;;;5052867;28;20484;-66
2021/05/01 12:42:25;;;;;;;7.97;4.88;;;;;;;;;;5052893;28;20037;-66
2021/05/01 12:44:50;;;;;;;8.85;4.90;;;;;;;;;;5052776;28;20032;-66
2021/05/01 12:47:34;;;;;;;7.13;5.03;;;;;;;;;;5052910;28;20060;-66
2021/05/01 12:50:11;;;;;;;7.45;5.10;;;;;;;;;;5045988;28;20033;-66
2021/05/01 12:52:37;;;;;;;9.48;5.43;;;;;;;;;;5051402;28;20477;-66
2021/05/01 12:55:02;;;;;;;9.60;5.18;;;;;;;;;;5051646;28;20047;-67
2021/05/01 12:57:32;;;;;;;8.70;5.53;;;;;;;;;;5051723;28;20566;-66
2021/05/01 12:59:57;;;;;;;7.07;4.65;;;;;;;;;;5051969;28;20032;-66
2021/05/01 13:02:23;;;;;;;7.78;5.75;;;;;;;;;;5051963;28;20037;-66
2021/05/01 13:05:02;;;;;;;7.75;4.93;;;;;;;;;;5051571;28;20040;-66
2021/05/01 13:07:29;;;;;;;7.47;4.40;;;;;;;;;;5052291;28;20033;-66
2021/05/01 13:09:55;;;;;;;6.35;4.32;;;;;;;;;;5051996;28;20115;-66
2021/05/01 13:12:24;;;;;;;6.75;3.92;;;;;;;;;;5055161;28;20491;-66
2021/05/01 13:14:49;;;;;;;8.57;4.20;;;;;;;;;;5055200;28;20045;-66
2021/05/01 13:17:23;;;;;;;6.10;4.53;;;;;;;;;;5055951;28;20033;-66
2021/05/01 13:20:11;;;;;;;5.22;4.20;;;;;;;;;;5054499;28;20037;-66
2021/05/01 13:22:36;;;;;;;6.93;4.10;;;;;;;;;;5055671;28;20045;-66
2021/05/01 13:25:07;;;;;;;5.93;4.28;;;;;;;;;;5055701;28;20111;-66
2021/05/01 13:27:50;;;;;;;6.50;4.70;;;;;;;;;;5055056;28;20392;-66
2021/05/01 13:30:32;;;;;;;6.05;4.45;;;;;;;;;;5055571;28;20160;-66
2021/05/01 13:33:01;;;;;;;9.85;4.80;;;;;;;;;;5056275;28;20167;-66
2021/05/01 13:35:26;;;;;;;6.35;4.63;;;;;;;;;;5056405;28;20151;-66
2021/05/01 13:37:53;;;;;;;10.25;6.30;;;;;;;;;;5056219;28;20123;-66
2021/05/01 13:40:26;;;;;;;12.20;6.43;;;;;;;;;;5055742;28;20041;-66
2021/05/01 13:42:52;;;;;;;10.07;7.03;;;;;;;;;;5054837;28;20382;-66
2021/05/01 13:45:17;;;;;;;13.63;6.50;;;;;;;;;;5055988;28;20033;-66
2021/05/01 13:47:46;;;;;;;12.15;6.55;;;;;;;;;;5056078;28;20519;-66
2021/05/01 13:50:32;;;;;;;10.32;6.53;;;;;;;;;;5055880;28;20037;-66
2021/05/01 13:53:03;;;;;;;10.95;6.47;;;;;;;;;;5055269;28;20045;-66
2021/05/01 13:55:30;;;;;;;8.43;5.70;;;;;;;;;;5055484;28;20086;-66
2021/05/01 13:58:05;;;;;;;8.07;5.82;;;;;;;;;;5055624;28;20037;-66
2021/05/01 14:00:50;;;;;;;8.15;5.47;;;;;;;;;;5055608;28;20045;-66
2021/05/01 14:03:16;;;;;;;;;;;;;;;;;;5055229;28;20095;-66
2021/05/01 14:05:41;;;;;;;;;;;;;;;;;;5056063;28;20312;-66
2021/05/01 14:08:06;;;;;;;9.05;4.97;;;;;;;;;;5055698;28;19907;-66
2021/05/01 14:10:32;;;;;;;8.20;5.18;;;;;;;;;;5055185;28;20036;-66
2021/05/01 14:12:58;;;;;;;7.97;6.00;;;;;;;;;;5055259;28;20029;-66
2021/05/01 14:15:25;;;;;;;8.55;5.22;;;;;;;;;;5055267;28;20028;-65
2021/05/01 14:18:07;;;;;;;8.73;5.50;;;;;;;;;;5055316;28;20373;-66
2021/05/01 14:20:34;;;;;;;8.68;5.22;;;;;;;;;;5055221;28;20097;-66
2021/05/01 14:22:59;;;;;;;8.70;5.43;;;;;;;;;;5055102;28;20040;-66